sensor_id;sensor_type;location;lat;lon;timestamp;pressure;altitude;pressure_sealevel;temperature;humidity
73870;BME280;64924;42.140;24.762;2023-07-29T00:01:43;99329.75;;;25.71;27.71
73870;BME280;64924;42.140;24.762;2023-07-29T00:04:09;99344.84;;;25.84;27.80
73870;BME280;64924;42.140;24.762;2023-07-29T00:06:35;99341.34;;;25.78;27.77
73870;BME280;64924;42.140;24.762;2023-07-29T00:09:01;99347.50;;;25.75;27.74
73870;BME280;64924;42.140;24.762;2023-07-29T00:11:27;99344.28;;;25.68;27.79
73870;BME280;64924;42.140;24.762;2023-07-29T00:13:52;99326.59;;;25.59;27.86
73870;BME280;64924;42.140;24.762;2023-07-29T00:16:18;99336.53;;;25.65;27.71
73870;BME280;64924;42.140;24.762;2023-07-29T00:18:47;99330.50;;;25.58;27.80
73870;BME280;64924;42.140;24.762;2023-07-29T00:21:13;99339.31;;;25.46;28.20
73870;BME280;64924;42.140;24.762;2023-07-29T00:23:38;99332.47;;;25.39;28.25
73870;BME280;64924;42.140;24.762;2023-07-29T00:26:04;99343.59;;;25.39;28.27
73870;BME280;64924;42.140;24.762;2023-07-29T00:28:29;99351.88;;;25.44;28.15
73870;BME280;64924;42.140;24.762;2023-07-29T00:30:55;99341.88;;;25.43;28.26
73870;BME280;64924;42.140;24.762;2023-07-29T00:33:21;99350.66;;;25.50;27.93
73870;BME280;64924;42.140;24.762;2023-07-29T00:35:46;99356.16;;;25.55;27.85
73870;BME280;64924;42.140;24.762;2023-07-29T00:38:12;99335.94;;;25.49;28.15
73870;BME280;64924;42.140;24.762;2023-07-29T00:40:37;99349.16;;;25.57;28.37
73870;BME280;64924;42.140;24.762;2023-07-29T00:43:03;99352.91;;;25.48;28.98
73870;BME280;64924;42.140;24.762;2023-07-29T00:45:29;99332.25;;;25.35;29.21
73870;BME280;64924;42.140;24.762;2023-07-29T00:47:55;99356.53;;;25.29;29.62
73870;BME280;64924;42.140;24.762;2023-07-29T00:50:21;99343.59;;;25.20;29.57
73870;BME280;64924;42.140;24.762;2023-07-29T00:52:48;99344.34;;;25.25;29.89
73870;BME280;64924;42.140;24.762;2023-07-29T00:55:14;99343.84;;;25.23;29.94
73870;BME280;64924;42.140;24.762;2023-07-29T00:57:40;99342.84;;;25.14;30.34
73870;BME280;64924;42.140;24.762;2023-07-29T01:00:08;99340.44;;;25.08;30.80
73870;BME280;64924;42.140;24.762;2023-07-29T01:02:35;99293.56;;;24.77;30.92
73870;BME280;64924;42.140;24.762;2023-07-29T01:05:01;99288.59;;;24.74;30.97
73870;BME280;64924;42.140;24.762;2023-07-29T01:08:03;99341.13;;;25.18;30.71
73870;BME280;64924;42.140;24.762;2023-07-29T01:10:44;99339.53;;;25.12;31.05
73870;BME280;64924;42.140;24.762;2023-07-29T01:13:37;99298.06;;;24.92;30.75
73870;BME280;64924;42.140;24.762;2023-07-29T01:16:17;99344.28;;;25.12;31.07
73870;BME280;64924;42.140;24.762;2023-07-29T01:18:45;99344.09;;;25.03;31.17
73870;BME280;64924;42.140;24.762;2023-07-29T01:21:15;99328.41;;;24.88;31.47
73870;BME280;64924;42.140;24.762;2023-07-29T01:23:42;99338.22;;;24.86;31.60
73870;BME280;64924;42.140;24.762;2023-07-29T01:26:08;99343.47;;;24.87;31.31
73870;BME280;64924;42.140;24.762;2023-07-29T01:28:33;99334.81;;;24.89;31.57
73870;BME280;64924;42.140;24.762;2023-07-29T01:31:34;99342.75;;;25.01;31.28
73870;BME280;64924;42.140;24.762;2023-07-29T01:34:26;99335.63;;;24.89;31.17
73870;BME280;64924;42.140;24.762;2023-07-29T01:36:57;99335.31;;;24.72;31.69
73870;BME280;64924;42.140;24.762;2023-07-29T01:39:24;99334.53;;;24.66;31.41
73870;BME280;64924;42.140;24.762;2023-07-29T01:41:52;99341.09;;;24.76;31.82
73870;BME280;64924;42.140;24.762;2023-07-29T01:44:19;99331.41;;;24.73;31.84
73870;BME280;64924;42.140;24.762;2023-07-29T01:46:44;99344.66;;;24.81;31.90
73870;BME280;64924;42.140;24.762;2023-07-29T01:49:10;99341.03;;;24.81;31.93
73870;BME280;64924;42.140;24.762;2023-07-29T01:51:35;99337.72;;;24.79;32.01
73870;BME280;64924;42.140;24.762;2023-07-29T01:54:01;99350.31;;;24.71;31.96
73870;BME280;64924;42.140;24.762;2023-07-29T01:56:26;99355.16;;;24.60;32.57
73870;BME280;64924;42.140;24.762;2023-07-29T01:58:52;99318.59;;;24.29;32.60
73870;BME280;64924;42.140;24.762;2023-07-29T02:01:17;99285.19;;;24.11;32.55
73870;BME280;64924;42.140;24.762;2023-07-29T02:03:43;99350.78;;;24.54;32.63
73870;BME280;64924;42.140;24.762;2023-07-29T02:06:08;99356.88;;;24.56;32.68
73870;BME280;64924;42.140;24.762;2023-07-29T02:08:34;99354.56;;;24.63;32.66
73870;BME280;64924;42.140;24.762;2023-07-29T02:11:00;99351.84;;;24.58;32.80
73870;BME280;64924;42.140;24.762;2023-07-29T02:13:26;99358.66;;;24.47;32.98
73870;BME280;64924;42.140;24.762;2023-07-29T02:15:51;99339.38;;;24.32;32.75
73870;BME280;64924;42.140;24.762;2023-07-29T02:18:17;99370.53;;;24.53;32.92
73870;BME280;64924;42.140;24.762;2023-07-29T02:20:42;99333.88;;;24.27;32.92
73870;BME280;64924;42.140;24.762;2023-07-29T02:23:15;99373.59;;;24.51;32.85
73870;BME280;64924;42.140;24.762;2023-07-29T02:25:41;99376.31;;;24.56;33.00
73870;BME280;64924;42.140;24.762;2023-07-29T02:28:06;99323.31;;;24.29;33.31
73870;BME280;64924;42.140;24.762;2023-07-29T02:30:32;99359.13;;;24.54;33.07
73870;BME280;64924;42.140;24.762;2023-07-29T02:32:57;99365.75;;;24.58;32.82
73870;BME280;64924;42.140;24.762;2023-07-29T02:35:25;99365.22;;;24.56;33.05
73870;BME280;64924;42.140;24.762;2023-07-29T02:37:50;99359.22;;;24.49;33.11
73870;BME280;64924;42.140;24.762;2023-07-29T02:40:16;99329.19;;;24.22;33.09
73870;BME280;64924;42.140;24.762;2023-07-29T02:42:41;99366.56;;;24.35;33.40
73870;BME280;64924;42.140;24.762;2023-07-29T02:45:07;99374.41;;;24.28;33.76
73870;BME280;64924;42.140;24.762;2023-07-29T02:47:36;99374.44;;;24.23;33.87
73870;BME280;64924;42.140;24.762;2023-07-29T02:50:02;99375.53;;;24.22;33.81
73870;BME280;64924;42.140;24.762;2023-07-29T02:52:27;99335.06;;;23.87;34.22
73870;BME280;64924;42.140;24.762;2023-07-29T02:54:53;99357.28;;;23.87;34.15
73870;BME280;64924;42.140;24.762;2023-07-29T02:57:18;99376.63;;;23.97;34.25
73870;BME280;64924;42.140;24.762;2023-07-29T02:59:44;99369.19;;;23.87;34.45
73870;BME280;64924;42.140;24.762;2023-07-29T03:02:11;99358.44;;;23.81;34.32
73870;BME280;64924;42.140;24.762;2023-07-29T03:04:36;99334.41;;;23.71;34.29
73870;BME280;64924;42.140;24.762;2023-07-29T03:07:02;99363.09;;;23.85;34.43
73870;BME280;64924;42.140;24.762;2023-07-29T03:09:27;99376.41;;;23.88;34.61
73870;BME280;64924;42.140;24.762;2023-07-29T03:11:53;99374.50;;;23.84;35.05
73870;BME280;64924;42.140;24.762;2023-07-29T03:14:20;99388.91;;;23.86;34.89
73870;BME280;64924;42.140;24.762;2023-07-29T03:16:46;99383.38;;;23.86;34.79
73870;BME280;64924;42.140;24.762;2023-07-29T03:19:12;99381.38;;;23.91;34.50
73870;BME280;64924;42.140;24.762;2023-07-29T03:21:38;99382.47;;;23.95;34.26
73870;BME280;64924;42.140;24.762;2023-07-29T03:24:03;99368.59;;;23.95;34.42
73870;BME280;64924;42.140;24.762;2023-07-29T03:26:29;99386.28;;;24.05;34.23
73870;BME280;64924;42.140;24.762;2023-07-29T03:28:54;99385.41;;;24.09;34.25
73870;BME280;64924;42.140;24.762;2023-07-29T03:31:20;99394.69;;;24.23;34.13
73870;BME280;64924;42.140;24.762;2023-07-29T03:33:45;99377.00;;;24.48;33.75
73870;BME280;64924;42.140;24.762;2023-07-29T03:36:11;99392.00;;;24.95;32.86
73870;BME280;64924;42.140;24.762;2023-07-29T03:38:36;99370.41;;;25.11;32.47
73870;BME280;64924;42.140;24.762;2023-07-29T03:41:07;99399.47;;;25.61;31.63
73870;BME280;64924;42.140;24.762;2023-07-29T03:43:32;99404.66;;;25.86;31.49
73870;BME280;64924;42.140;24.762;2023-07-29T03:45:58;99410.09;;;26.10;31.20
73870;BME280;64924;42.140;24.762;2023-07-29T03:48:23;99407.91;;;26.26;31.05
73870;BME280;64924;42.140;24.762;2023-07-29T03:50:49;99406.59;;;26.37;30.89
73870;BME280;64924;42.140;24.762;2023-07-29T03:53:14;99409.28;;;26.42;31.02
73870;BME280;64924;42.140;24.762;2023-07-29T03:55:40;99400.53;;;26.35;30.84
73870;BME280;64924;42.140;24.762;2023-07-29T03:58:06;99414.78;;;26.47;30.66
73870;BME280;64924;42.140;24.762;2023-07-29T04:00:31;99423.16;;;26.61;30.57
73870;BME280;64924;42.140;24.762;2023-07-29T04:02:57;99415.63;;;26.75;30.77
73870;BME280;64924;42.140;24.762;2023-07-29T04:05:22;99423.50;;;26.87;30.12
73870;BME280;64924;42.140;24.762;2023-07-29T04:07:48;99421.69;;;26.96;29.68
73870;BME280;64924;42.140;24.762;2023-07-29T04:10:13;99421.28;;;27.03;29.64
73870;BME280;64924;42.140;24.762;2023-07-29T04:12:39;99418.28;;;26.99;29.90
73870;BME280;64924;42.140;24.762;2023-07-29T04:15:05;99428.72;;;27.07;29.70
73870;BME280;64924;42.140;24.762;2023-07-29T04:17:30;99430.94;;;27.19;29.60
73870;BME280;64924;42.140;24.762;2023-07-29T04:19:56;99430.44;;;27.30;29.56
73870;BME280;64924;42.140;24.762;2023-07-29T04:22:21;99429.41;;;27.40;29.63
73870;BME280;64924;42.140;24.762;2023-07-29T04:24:47;99427.19;;;27.51;29.53
73870;BME280;64924;42.140;24.762;2023-07-29T04:27:12;99415.81;;;27.61;29.23
73870;BME280;64924;42.140;24.762;2023-07-29T04:29:38;99418.06;;;27.73;29.70
73870;BME280;64924;42.140;24.762;2023-07-29T04:32:04;99430.81;;;27.87;29.29
73870;BME280;64924;42.140;24.762;2023-07-29T04:34:31;99430.81;;;27.87;28.66
73870;BME280;64924;42.140;24.762;2023-07-29T04:36:56;99430.06;;;27.73;29.07
73870;BME280;64924;42.140;24.762;2023-07-29T04:39:22;99437.06;;;27.84;29.03
73870;BME280;64924;42.140;24.762;2023-07-29T04:41:47;99398.66;;;27.68;28.99
73870;BME280;64924;42.140;24.762;2023-07-29T04:44:13;99423.09;;;27.84;28.85
73870;BME280;64924;42.140;24.762;2023-07-29T04:46:38;99415.72;;;27.88;28.87
73870;BME280;64924;42.140;24.762;2023-07-29T04:49:04;99434.66;;;28.14;28.74
73870;BME280;64924;42.140;24.762;2023-07-29T04:51:30;99422.34;;;28.15;28.67
73870;BME280;64924;42.140;24.762;2023-07-29T04:53:57;99431.25;;;28.39;28.47
73870;BME280;64924;42.140;24.762;2023-07-29T04:56:22;99438.59;;;28.57;28.39
73870;BME280;64924;42.140;24.762;2023-07-29T04:58:48;99429.91;;;28.59;28.44
73870;BME280;64924;42.140;24.762;2023-07-29T05:01:13;99418.75;;;28.68;28.29
73870;BME280;64924;42.140;24.762;2023-07-29T05:03:39;99421.97;;;28.83;27.52
73870;BME280;64924;42.140;24.762;2023-07-29T05:06:05;99426.31;;;28.98;27.76
73870;BME280;64924;42.140;24.762;2023-07-29T05:08:30;99433.59;;;29.08;27.23
73870;BME280;64924;42.140;24.762;2023-07-29T05:10:56;99432.94;;;29.11;27.42
73870;BME280;64924;42.140;24.762;2023-07-29T05:13:22;99428.03;;;29.16;27.54
73870;BME280;64924;42.140;24.762;2023-07-29T05:15:48;99439.09;;;29.30;27.23
73870;BME280;64924;42.140;24.762;2023-07-29T05:18:15;99436.28;;;29.39;27.47
73870;BME280;64924;42.140;24.762;2023-07-29T05:20:41;99433.19;;;29.40;27.28
73870;BME280;64924;42.140;24.762;2023-07-29T05:23:06;99438.06;;;29.91;26.95
73870;BME280;64924;42.140;24.762;2023-07-29T05:25:32;99442.50;;;30.18;26.21
73870;BME280;64924;42.140;24.762;2023-07-29T05:28:00;99452.53;;;30.45;26.03
73870;BME280;64924;42.140;24.762;2023-07-29T05:30:25;99445.91;;;30.50;26.01
73870;BME280;64924;42.140;24.762;2023-07-29T05:32:52;99454.50;;;30.71;25.59
73870;BME280;64924;42.140;24.762;2023-07-29T05:35:17;99441.81;;;31.03;25.03
73870;BME280;64924;42.140;24.762;2023-07-29T05:37:43;99438.03;;;31.37;24.28
73870;BME280;64924;42.140;24.762;2023-07-29T05:40:09;99445.47;;;31.62;23.69
73870;BME280;64924;42.140;24.762;2023-07-29T05:42:35;99414.97;;;31.81;22.79
73870;BME280;64924;42.140;24.762;2023-07-29T05:45:00;99451.63;;;32.60;22.29
73870;BME280;64924;42.140;24.762;2023-07-29T05:47:26;99414.19;;;32.92;22.10
73870;BME280;64924;42.140;24.762;2023-07-29T05:49:52;99440.34;;;33.78;20.89
73870;BME280;64924;42.140;24.762;2023-07-29T05:52:18;99452.06;;;34.20;20.34
73870;BME280;64924;42.140;24.762;2023-07-29T05:54:44;99449.31;;;34.64;19.74
73870;BME280;64924;42.140;24.762;2023-07-29T05:57:11;99452.50;;;35.22;19.17
73870;BME280;64924;42.140;24.762;2023-07-29T05:59:37;99412.91;;;35.53;18.61
73870;BME280;64924;42.140;24.762;2023-07-29T06:02:02;99451.19;;;36.40;17.92
73870;BME280;64924;42.140;24.762;2023-07-29T06:04:28;99439.63;;;37.13;17.29
73870;BME280;64924;42.140;24.762;2023-07-29T06:06:54;99444.28;;;37.48;17.11
73870;BME280;64924;42.140;24.762;2023-07-29T06:09:21;99445.22;;;37.82;16.34
73870;BME280;64924;42.140;24.762;2023-07-29T06:11:46;99427.66;;;38.03;16.22
73870;BME280;64924;42.140;24.762;2023-07-29T06:14:12;99415.97;;;38.08;16.32
73870;BME280;64924;42.140;24.762;2023-07-29T06:16:37;99435.31;;;38.66;15.82
73870;BME280;64924;42.140;24.762;2023-07-29T06:19:03;99410.66;;;39.18;15.59
73870;BME280;64924;42.140;24.762;2023-07-29T06:21:28;99427.88;;;39.39;14.86
73870;BME280;64924;42.140;24.762;2023-07-29T06:23:54;99438.13;;;40.16;14.59
73870;BME280;64924;42.140;24.762;2023-07-29T06:26:19;99448.47;;;40.56;14.30
73870;BME280;64924;42.140;24.762;2023-07-29T06:28:45;99424.97;;;41.05;13.88
73870;BME280;64924;42.140;24.762;2023-07-29T06:31:10;99438.84;;;41.32;14.13
73870;BME280;64924;42.140;24.762;2023-07-29T06:33:36;99438.34;;;42.01;13.18
73870;BME280;64924;42.140;24.762;2023-07-29T06:36:01;99444.81;;;42.12;13.03
73870;BME280;64924;42.140;24.762;2023-07-29T06:38:27;99415.84;;;42.17;12.82
73870;BME280;64924;42.140;24.762;2023-07-29T06:40:52;99426.31;;;42.38;12.39
73870;BME280;64924;42.140;24.762;2023-07-29T06:43:18;99421.53;;;42.24;12.44
73870;BME280;64924;42.140;24.762;2023-07-29T06:45:43;99427.84;;;42.67;12.58
73870;BME280;64924;42.140;24.762;2023-07-29T06:48:09;99432.66;;;43.37;11.63
73870;BME280;64924;42.140;24.762;2023-07-29T06:50:34;99428.28;;;44.04;11.13
73870;BME280;64924;42.140;24.762;2023-07-29T06:53:00;99418.88;;;44.33;11.40
73870;BME280;64924;42.140;24.762;2023-07-29T06:55:25;99423.97;;;44.53;10.71
73870;BME280;64924;42.140;24.762;2023-07-29T06:57:51;99432.31;;;44.40;11.20
73870;BME280;64924;42.140;24.762;2023-07-29T07:00:16;99398.25;;;44.49;11.00
73870;BME280;64924;42.140;24.762;2023-07-29T07:02:42;99395.81;;;44.48;10.73
73870;BME280;64924;42.140;24.762;2023-07-29T07:05:07;99429.50;;;44.94;10.86
73870;BME280;64924;42.140;24.762;2023-07-29T07:07:33;99430.13;;;45.32;10.53
73870;BME280;64924;42.140;24.762;2023-07-29T07:09:58;99427.41;;;45.25;10.33
73870;BME280;64924;42.140;24.762;2023-07-29T07:12:24;99418.22;;;45.57;10.46
73870;BME280;64924;42.140;24.762;2023-07-29T07:14:50;99413.06;;;45.68;10.43
73870;BME280;64924;42.140;24.762;2023-07-29T07:17:15;99414.34;;;45.20;10.64
73870;BME280;64924;42.140;24.762;2023-07-29T07:19:40;99408.44;;;44.77;11.46
73870;BME280;64924;42.140;24.762;2023-07-29T07:22:06;99416.81;;;44.64;11.45
73870;BME280;64924;42.140;24.762;2023-07-29T07:24:32;99399.16;;;44.43;11.75
73870;BME280;64924;42.140;24.762;2023-07-29T07:26:57;99404.78;;;44.50;11.68
73870;BME280;64924;42.140;24.762;2023-07-29T07:29:23;99410.38;;;44.26;11.56
73870;BME280;64924;42.140;24.762;2023-07-29T07:31:52;99405.72;;;44.09;11.79
73870;BME280;64924;42.140;24.762;2023-07-29T07:34:22;99400.59;;;44.24;11.36
73870;BME280;64924;42.140;24.762;2023-07-29T07:36:48;99398.53;;;44.24;11.39
73870;BME280;64924;42.140;24.762;2023-07-29T07:39:14;99377.94;;;44.63;11.50
73870;BME280;64924;42.140;24.762;2023-07-29T07:41:40;99393.91;;;44.34;11.56
73870;BME280;64924;42.140;24.762;2023-07-29T07:44:06;99384.81;;;42.89;12.52
73870;BME280;64924;42.140;24.762;2023-07-29T07:46:31;99386.06;;;42.18;13.08
73870;BME280;64924;42.140;24.762;2023-07-29T07:48:57;99370.81;;;42.39;13.01
73870;BME280;64924;42.140;24.762;2023-07-29T07:51:22;99387.91;;;43.09;12.88
73870;BME280;64924;42.140;24.762;2023-07-29T07:53:48;99379.81;;;43.45;12.36
73870;BME280;64924;42.140;24.762;2023-07-29T07:56:15;99380.69;;;42.93;12.50
73870;BME280;64924;42.140;24.762;2023-07-29T07:58:41;99323.25;;;42.11;13.15
73870;BME280;64924;42.140;24.762;2023-07-29T08:01:08;99364.97;;;41.80;13.94
73870;BME280;64924;42.140;24.762;2023-07-29T08:03:37;99368.72;;;41.45;14.32
73870;BME280;64924;42.140;24.762;2023-07-29T08:06:02;99364.63;;;41.60;14.14
73870;BME280;64924;42.140;24.762;2023-07-29T08:08:28;99363.88;;;42.44;13.24
73870;BME280;64924;42.140;24.762;2023-07-29T08:11:19;99360.28;;;42.91;13.38
73870;BME280;64924;42.140;24.762;2023-07-29T08:13:44;99354.56;;;42.91;12.99
73870;BME280;64924;42.140;24.762;2023-07-29T08:16:10;99336.06;;;43.07;12.92
73870;BME280;64924;42.140;24.762;2023-07-29T08:18:35;99363.81;;;43.51;12.83
73870;BME280;64924;42.140;24.762;2023-07-29T08:21:01;99355.31;;;43.81;12.70
73870;BME280;64924;42.140;24.762;2023-07-29T08:23:34;99357.94;;;44.03;11.93
73870;BME280;64924;42.140;24.762;2023-07-29T08:26:02;99356.31;;;43.98;12.30
73870;BME280;64924;42.140;24.762;2023-07-29T08:28:29;99350.16;;;43.99;12.38
73870;BME280;64924;42.140;24.762;2023-07-29T08:30:55;99333.56;;;43.50;12.19
73870;BME280;64924;42.140;24.762;2023-07-29T08:33:21;99347.28;;;43.31;12.55
73870;BME280;64924;42.140;24.762;2023-07-29T08:35:46;99340.25;;;42.95;13.00
73870;BME280;64924;42.140;24.762;2023-07-29T08:38:12;99346.78;;;42.95;12.95
73870;BME280;64924;42.140;24.762;2023-07-29T08:40:42;99317.44;;;42.32;13.44
73870;BME280;64924;42.140;24.762;2023-07-29T08:43:11;99320.22;;;41.52;13.90
73870;BME280;64924;42.140;24.762;2023-07-29T08:45:38;99335.81;;;40.80;14.62
73870;BME280;64924;42.140;24.762;2023-07-29T08:48:08;99322.75;;;40.86;14.12
73870;BME280;64924;42.140;24.762;2023-07-29T08:50:36;99326.81;;;40.99;14.08
73870;BME280;64924;42.140;24.762;2023-07-29T08:53:04;99324.38;;;41.19;14.14
73870;BME280;64924;42.140;24.762;2023-07-29T08:55:31;99318.66;;;41.08;14.03
73870;BME280;64924;42.140;24.762;2023-07-29T08:57:58;99319.03;;;40.50;14.02
73870;BME280;64924;42.140;24.762;2023-07-29T09:00:25;99310.50;;;40.50;14.15
73870;BME280;64924;42.140;24.762;2023-07-29T09:02:50;99314.56;;;40.49;13.85
73870;BME280;64924;42.140;24.762;2023-07-29T09:05:16;99305.94;;;40.06;14.35
73870;BME280;64924;42.140;24.762;2023-07-29T09:07:42;99325.72;;;39.74;15.02
73870;BME280;64924;42.140;24.762;2023-07-29T09:10:09;99314.56;;;38.83;15.49
73870;BME280;64924;42.140;24.762;2023-07-29T09:12:38;99301.03;;;37.91;16.19
73870;BME280;64924;42.140;24.762;2023-07-29T09:15:03;99315.56;;;37.56;16.93
73870;BME280;64924;42.140;24.762;2023-07-29T09:17:40;99276.72;;;37.00;17.06
73870;BME280;64924;42.140;24.762;2023-07-29T09:20:09;99302.81;;;37.13;17.48
73870;BME280;64924;42.140;24.762;2023-07-29T09:22:35;99306.84;;;37.12;17.14
73870;BME280;64924;42.140;24.762;2023-07-29T09:25:00;99305.81;;;36.97;17.48
73870;BME280;64924;42.140;24.762;2023-07-29T09:27:27;99297.41;;;36.78;17.55
73870;BME280;64924;42.140;24.762;2023-07-29T09:29:55;99292.00;;;36.46;17.41
73870;BME280;64924;42.140;24.762;2023-07-29T09:32:21;99299.97;;;36.41;17.20
73870;BME280;64924;42.140;24.762;2023-07-29T09:34:47;99271.16;;;36.12;17.44
73870;BME280;64924;42.140;24.762;2023-07-29T09:37:31;99281.47;;;36.47;16.96
73870;BME280;64924;42.140;24.762;2023-07-29T09:39:57;99278.75;;;36.08;16.97
73870;BME280;64924;42.140;24.762;2023-07-29T09:42:23;99258.16;;;35.31;17.60
73870;BME280;64924;42.140;24.762;2023-07-29T09:44:49;99269.09;;;34.97;18.10
73870;BME280;64924;42.140;24.762;2023-07-29T09:47:25;99268.34;;;34.81;17.83
73870;BME280;64924;42.140;24.762;2023-07-29T09:49:52;99264.47;;;34.73;18.00
73870;BME280;64924;42.140;24.762;2023-07-29T09:52:19;99257.53;;;35.02;17.99
73870;BME280;64924;42.140;24.762;2023-07-29T09:54:46;99256.38;;;35.23;17.33
73870;BME280;64924;42.140;24.762;2023-07-29T09:57:13;99258.78;;;35.40;16.75
73870;BME280;64924;42.140;24.762;2023-07-29T09:59:39;99264.81;;;35.58;16.83
73870;BME280;64924;42.140;24.762;2023-07-29T10:02:13;99261.09;;;35.54;16.38
73870;BME280;64924;42.140;24.762;2023-07-29T10:04:43;99238.25;;;35.43;16.96
73870;BME280;64924;42.140;24.762;2023-07-29T10:07:12;99209.31;;;35.30;16.51
73870;BME280;64924;42.140;24.762;2023-07-29T10:09:40;99251.63;;;35.65;17.28
73870;BME280;64924;42.140;24.762;2023-07-29T10:12:07;99256.28;;;35.77;16.79
73870;BME280;64924;42.140;24.762;2023-07-29T10:14:33;99244.72;;;35.82;16.89
73870;BME280;64924;42.140;24.762;2023-07-29T10:16:59;99250.97;;;36.14;16.85
73870;BME280;64924;42.140;24.762;2023-07-29T10:19:26;99237.31;;;36.20;17.00
73870;BME280;64924;42.140;24.762;2023-07-29T10:21:56;99248.00;;;36.26;16.34
73870;BME280;64924;42.140;24.762;2023-07-29T10:24:24;99247.69;;;36.12;16.67
73870;BME280;64924;42.140;24.762;2023-07-29T10:26:57;99244.94;;;36.15;16.79
73870;BME280;64924;42.140;24.762;2023-07-29T10:29:24;99243.06;;;36.00;16.46
73870;BME280;64924;42.140;24.762;2023-07-29T10:31:52;99231.63;;;35.55;17.23
73870;BME280;64924;42.140;24.762;2023-07-29T10:34:20;99238.41;;;35.50;16.68
73870;BME280;64924;42.140;24.762;2023-07-29T10:36:47;99241.63;;;35.13;17.32
73870;BME280;64924;42.140;24.762;2023-07-29T10:39:13;99206.50;;;34.60;17.71
73870;BME280;64924;42.140;24.762;2023-07-29T10:42:00;99218.88;;;35.06;16.87
73870;BME280;64924;42.140;24.762;2023-07-29T10:47:15;99219.50;;;35.35;17.15
73870;BME280;64924;42.140;24.762;2023-07-29T10:49:42;99213.50;;;35.56;17.00
73870;BME280;64924;42.140;24.762;2023-07-29T10:52:07;99188.56;;;35.61;16.60
73870;BME280;64924;42.140;24.762;2023-07-29T10:54:44;99128.25;;;35.54;16.56
73870;BME280;64924;42.140;24.762;2023-07-29T10:57:33;99213.75;;;36.12;16.37
73870;BME280;64924;42.140;24.762;2023-07-29T11:00:00;99201.63;;;36.11;16.40
73870;BME280;64924;42.140;24.762;2023-07-29T11:02:36;99197.06;;;36.26;15.94
73870;BME280;64924;42.140;24.762;2023-07-29T11:05:17;99203.69;;;35.92;16.25
73870;BME280;64924;42.140;24.762;2023-07-29T11:07:47;99193.13;;;35.46;16.51
73870;BME280;64924;42.140;24.762;2023-07-29T11:10:14;99190.66;;;35.26;16.95
73870;BME280;64924;42.140;24.762;2023-07-29T11:12:42;99191.41;;;35.23;16.80
73870;BME280;64924;42.140;24.762;2023-07-29T11:17:43;99190.56;;;34.68;17.16
73870;BME280;64924;42.140;24.762;2023-07-29T11:20:10;99187.94;;;34.59;17.41
73870;BME280;64924;42.140;24.762;2023-07-29T11:22:39;99188.53;;;34.84;17.43
73870;BME280;64924;42.140;24.762;2023-07-29T11:25:08;99171.00;;;34.94;16.99
73870;BME280;64924;42.140;24.762;2023-07-29T11:27:35;99180.69;;;35.12;16.96
73870;BME280;64924;42.140;24.762;2023-07-29T11:30:03;99167.97;;;35.03;16.65
73870;BME280;64924;42.140;24.762;2023-07-29T11:32:34;99156.66;;;35.03;17.08
73870;BME280;64924;42.140;24.762;2023-07-29T11:35:11;99167.84;;;35.34;16.71
73870;BME280;64924;42.140;24.762;2023-07-29T11:37:38;99166.13;;;35.49;16.55
73870;BME280;64924;42.140;24.762;2023-07-29T11:40:05;99160.75;;;35.63;17.01
73870;BME280;64924;42.140;24.762;2023-07-29T11:42:33;99166.13;;;35.91;16.71
73870;BME280;64924;42.140;24.762;2023-07-29T11:45:00;99150.63;;;36.08;16.25
73870;BME280;64924;42.140;24.762;2023-07-29T11:47:26;99150.97;;;36.26;16.08
73870;BME280;64924;42.140;24.762;2023-07-29T11:49:52;99154.53;;;36.23;16.44
73870;BME280;64924;42.140;24.762;2023-07-29T11:52:18;99135.41;;;36.16;16.07
73870;BME280;64924;42.140;24.762;2023-07-29T11:54:46;99150.59;;;35.81;16.04
73870;BME280;64924;42.140;24.762;2023-07-29T11:57:12;99128.44;;;35.22;16.75
73870;BME280;64924;42.140;24.762;2023-07-29T11:59:39;99145.97;;;35.31;17.46
73870;BME280;64924;42.140;24.762;2023-07-29T12:02:15;99137.13;;;35.33;17.38
73870;BME280;64924;42.140;24.762;2023-07-29T12:04:43;99136.47;;;35.20;17.32
73870;BME280;64924;42.140;24.762;2023-07-29T12:07:10;99130.28;;;35.14;17.46
73870;BME280;64924;42.140;24.762;2023-07-29T12:09:37;99128.91;;;35.28;17.69
73870;BME280;64924;42.140;24.762;2023-07-29T12:12:04;99125.00;;;35.32;17.04
73870;BME280;64924;42.140;24.762;2023-07-29T12:14:31;99135.38;;;35.28;17.05
73870;BME280;64924;42.140;24.762;2023-07-29T12:16:59;99106.88;;;35.14;16.53
73870;BME280;64924;42.140;24.762;2023-07-29T12:19:32;99129.09;;;35.35;16.57
73870;BME280;64924;42.140;24.762;2023-07-29T12:21:59;99115.28;;;35.30;16.67
73870;BME280;64924;42.140;24.762;2023-07-29T12:24:24;99074.69;;;35.18;16.80
73870;BME280;64924;42.140;24.762;2023-07-29T12:26:50;99129.25;;;35.03;17.45
73870;BME280;64924;42.140;24.762;2023-07-29T12:29:17;99110.13;;;34.77;17.56
73870;BME280;64924;42.140;24.762;2023-07-29T12:31:45;99120.88;;;34.72;17.29
73870;BME280;64924;42.140;24.762;2023-07-29T12:34:18;99109.44;;;34.65;17.39
73870;BME280;64924;42.140;24.762;2023-07-29T12:36:50;99071.84;;;34.61;17.33
73870;BME280;64924;42.140;24.762;2023-07-29T12:39:23;99103.22;;;34.94;16.85
73870;BME280;64924;42.140;24.762;2023-07-29T12:41:50;99108.59;;;34.80;16.75
73870;BME280;64924;42.140;24.762;2023-07-29T12:44:16;99098.66;;;34.86;16.38
73870;BME280;64924;42.140;24.762;2023-07-29T12:46:42;99099.66;;;34.78;16.35
73870;BME280;64924;42.140;24.762;2023-07-29T12:49:08;99089.38;;;34.50;16.46
73870;BME280;64924;42.140;24.762;2023-07-29T12:51:33;99056.19;;;34.28;16.32
73870;BME280;64924;42.140;24.762;2023-07-29T12:54:00;99062.66;;;34.44;16.70
73870;BME280;64924;42.140;24.762;2023-07-29T12:56:25;99085.66;;;34.66;16.56